sensor_id;sensor_type;location;lat;lon;timestamp;P1;durP1;ratioP1;P2;durP2;ratioP2
32918;SDS011;19280;42.646;21.150;2022-11-03T00:01:57;66.07;;;34.00;;
32918;SDS011;19280;42.646;21.150;2022-11-03T00:04:23;77.28;;;36.92;;
32918;SDS011;19280;42.646;21.150;2022-11-03T00:06:50;74.05;;;37.08;;
32918;SDS011;19280;42.646;21.150;2022-11-03T00:09:17;80.78;;;35.35;;
32918;SDS011;19280;42.646;21.150;2022-11-03T00:11:44;66.75;;;30.48;;
32918;SDS011;19280;42.646;21.150;2022-11-03T00:14:10;64.00;;;28.70;;
32918;SDS011;19280;42.646;21.150;2022-11-03T00:16:37;66.63;;;29.35;;
32918;SDS011;19280;42.646;21.150;2022-11-03T00:19:08;74.40;;;29.13;;
32918;SDS011;19280;42.646;21.150;2022-11-03T00:21:34;69.13;;;31.38;;
32918;SDS011;19280;42.646;21.150;2022-11-03T00:24:01;60.88;;;27.27;;
32918;SDS011;19280;42.646;21.150;2022-11-03T00:26:37;62.85;;;29.98;;
32918;SDS011;19280;42.646;21.150;2022-11-03T00:29:07;55.88;;;27.73;;
32918;SDS011;19280;42.646;21.150;2022-11-03T00:31:42;58.95;;;27.50;;
32918;SDS011;19280;42.646;21.150;2022-11-03T00:34:09;73.57;;;30.75;;
32918;SDS011;19280;42.646;21.150;2022-11-03T00:36:36;63.90;;;29.55;;
32918;SDS011;19280;42.646;21.150;2022-11-03T00:41:28;68.38;;;32.92;;
32918;SDS011;19280;42.646;21.150;2022-11-03T00:43:54;65.50;;;31.30;;
32918;SDS011;19280;42.646;21.150;2022-11-03T00:46:21;68.22;;;29.70;;
32918;SDS011;19280;42.646;21.150;2022-11-03T00:48:48;71.15;;;31.75;;
32918;SDS011;19280;42.646;21.150;2022-11-03T00:53:47;68.72;;;30.95;;
32918;SDS011;19280;42.646;21.150;2022-11-03T00:56:17;59.15;;;30.75;;
32918;SDS011;19280;42.646;21.150;2022-11-03T00:58:44;64.40;;;30.10;;
32918;SDS011;19280;42.646;21.150;2022-11-03T01:01:17;62.42;;;31.75;;
32918;SDS011;19280;42.646;21.150;2022-11-03T01:03:44;64.15;;;31.00;;
32918;SDS011;19280;42.646;21.150;2022-11-03T01:06:30;62.35;;;33.25;;
32918;SDS011;19280;42.646;21.150;2022-11-03T01:09:22;69.93;;;30.67;;
32918;SDS011;19280;42.646;21.150;2022-11-03T01:11:50;67.15;;;30.13;;
32918;SDS011;19280;42.646;21.150;2022-11-03T01:14:17;70.13;;;32.47;;
32918;SDS011;19280;42.646;21.150;2022-11-03T01:16:43;66.88;;;29.73;;
32918;SDS011;19280;42.646;21.150;2022-11-03T01:19:10;64.85;;;30.55;;
32918;SDS011;19280;42.646;21.150;2022-11-03T01:21:36;68.72;;;33.42;;
32918;SDS011;19280;42.646;21.150;2022-11-03T01:24:02;72.30;;;31.52;;
32918;SDS011;19280;42.646;21.150;2022-11-03T01:26:29;67.80;;;31.25;;
32918;SDS011;19280;42.646;21.150;2022-11-03T01:28:57;80.35;;;31.92;;
32918;SDS011;19280;42.646;21.150;2022-11-03T01:31:23;77.85;;;32.25;;
32918;SDS011;19280;42.646;21.150;2022-11-03T01:33:50;71.65;;;33.63;;
32918;SDS011;19280;42.646;21.150;2022-11-03T01:36:17;70.68;;;34.92;;
32918;SDS011;19280;42.646;21.150;2022-11-03T01:38:43;72.47;;;34.10;;
32918;SDS011;19280;42.646;21.150;2022-11-03T01:41:11;68.13;;;31.45;;
32918;SDS011;19280;42.646;21.150;2022-11-03T01:43:38;69.88;;;32.70;;
32918;SDS011;19280;42.646;21.150;2022-11-03T01:46:15;79.50;;;32.13;;
32918;SDS011;19280;42.646;21.150;2022-11-03T01:48:49;68.65;;;33.47;;
32918;SDS011;19280;42.646;21.150;2022-11-03T01:51:17;77.78;;;33.40;;
32918;SDS011;19280;42.646;21.150;2022-11-03T01:53:46;76.85;;;32.28;;
32918;SDS011;19280;42.646;21.150;2022-11-03T01:56:13;77.32;;;33.42;;
32918;SDS011;19280;42.646;21.150;2022-11-03T01:58:41;65.07;;;30.90;;
32918;SDS011;19280;42.646;21.150;2022-11-03T02:01:08;71.63;;;32.72;;
32918;SDS011;19280;42.646;21.150;2022-11-03T02:03:36;67.40;;;32.88;;
32918;SDS011;19280;42.646;21.150;2022-11-03T02:06:03;78.00;;;35.05;;
32918;SDS011;19280;42.646;21.150;2022-11-03T02:11:28;74.25;;;33.75;;
32918;SDS011;19280;42.646;21.150;2022-11-03T02:14:13;59.90;;;32.40;;
32918;SDS011;19280;42.646;21.150;2022-11-03T02:16:40;77.85;;;33.50;;
32918;SDS011;19280;42.646;21.150;2022-11-03T02:19:09;79.32;;;34.13;;
32918;SDS011;19280;42.646;21.150;2022-11-03T02:21:43;70.30;;;34.20;;
32918;SDS011;19280;42.646;21.150;2022-11-03T02:24:14;67.30;;;31.88;;
32918;SDS011;19280;42.646;21.150;2022-11-03T02:26:43;74.60;;;34.03;;
32918;SDS011;19280;42.646;21.150;2022-11-03T02:29:12;69.15;;;34.30;;
32918;SDS011;19280;42.646;21.150;2022-11-03T02:31:42;68.05;;;33.15;;
32918;SDS011;19280;42.646;21.150;2022-11-03T02:34:31;70.55;;;33.70;;
32918;SDS011;19280;42.646;21.150;2022-11-03T02:37:04;75.15;;;33.60;;
32918;SDS011;19280;42.646;21.150;2022-11-03T02:42:25;73.10;;;33.50;;
32918;SDS011;19280;42.646;21.150;2022-11-03T02:44:51;77.60;;;33.83;;
32918;SDS011;19280;42.646;21.150;2022-11-03T02:47:18;67.40;;;33.95;;
32918;SDS011;19280;42.646;21.150;2022-11-03T02:49:46;78.18;;;36.70;;
32918;SDS011;19280;42.646;21.150;2022-11-03T02:54:58;64.57;;;34.83;;
32918;SDS011;19280;42.646;21.150;2022-11-03T02:57:26;74.05;;;35.35;;
32918;SDS011;19280;42.646;21.150;2022-11-03T03:00:04;80.60;;;35.97;;
32918;SDS011;19280;42.646;21.150;2022-11-03T03:02:50;80.07;;;35.85;;
32918;SDS011;19280;42.646;21.150;2022-11-03T03:05:22;82.13;;;36.60;;
32918;SDS011;19280;42.646;21.150;2022-11-03T03:07:51;78.95;;;36.97;;
32918;SDS011;19280;42.646;21.150;2022-11-03T03:10:25;85.25;;;36.35;;
32918;SDS011;19280;42.646;21.150;2022-11-03T03:12:54;77.35;;;36.25;;
32918;SDS011;19280;42.646;21.150;2022-11-03T03:15:22;80.63;;;37.17;;
32918;SDS011;19280;42.646;21.150;2022-11-03T03:17:56;71.18;;;35.00;;
32918;SDS011;19280;42.646;21.150;2022-11-03T03:23:23;70.10;;;34.47;;
32918;SDS011;19280;42.646;21.150;2022-11-03T03:25:54;66.75;;;29.70;;
32918;SDS011;19280;42.646;21.150;2022-11-03T03:28:33;71.05;;;29.45;;
32918;SDS011;19280;42.646;21.150;2022-11-03T03:31:01;61.70;;;29.13;;
32918;SDS011;19280;42.646;21.150;2022-11-03T03:33:30;56.75;;;27.98;;
32918;SDS011;19280;42.646;21.150;2022-11-03T03:35:57;62.05;;;27.58;;
32918;SDS011;19280;42.646;21.150;2022-11-03T03:38:28;51.85;;;25.85;;
32918;SDS011;19280;42.646;21.150;2022-11-03T03:40:57;49.13;;;25.90;;
32918;SDS011;19280;42.646;21.150;2022-11-03T03:43:26;52.00;;;25.45;;
32918;SDS011;19280;42.646;21.150;2022-11-03T03:45:53;53.95;;;26.85;;
32918;SDS011;19280;42.646;21.150;2022-11-03T03:48:21;60.05;;;26.83;;
32918;SDS011;19280;42.646;21.150;2022-11-03T03:50:47;53.67;;;27.02;;
32918;SDS011;19280;42.646;21.150;2022-11-03T03:53:14;47.97;;;25.08;;
32918;SDS011;19280;42.646;21.150;2022-11-03T03:55:42;56.20;;;26.38;;
32918;SDS011;19280;42.646;21.150;2022-11-03T03:58:09;39.03;;;21.10;;
32918;SDS011;19280;42.646;21.150;2022-11-03T04:00:37;39.13;;;19.80;;
32918;SDS011;19280;42.646;21.150;2022-11-03T04:03:04;49.13;;;23.25;;
32918;SDS011;19280;42.646;21.150;2022-11-03T04:05:31;43.38;;;18.95;;
32918;SDS011;19280;42.646;21.150;2022-11-03T04:10:23;35.00;;;16.35;;
32918;SDS011;19280;42.646;21.150;2022-11-03T04:12:49;31.45;;;15.30;;
32918;SDS011;19280;42.646;21.150;2022-11-03T04:15:34;26.83;;;12.85;;
32918;SDS011;19280;42.646;21.150;2022-11-03T04:18:13;27.48;;;13.25;;
32918;SDS011;19280;42.646;21.150;2022-11-03T04:20:58;31.25;;;14.25;;
32918;SDS011;19280;42.646;21.150;2022-11-03T04:23:43;29.48;;;14.18;;
32918;SDS011;19280;42.646;21.150;2022-11-03T04:26:13;45.60;;;17.20;;
32918;SDS011;19280;42.646;21.150;2022-11-03T04:28:40;41.28;;;20.50;;
32918;SDS011;19280;42.646;21.150;2022-11-03T04:33:32;66.50;;;34.83;;
32918;SDS011;19280;42.646;21.150;2022-11-03T04:35:58;65.57;;;32.08;;
32918;SDS011;19280;42.646;21.150;2022-11-03T04:38:27;63.58;;;32.72;;
32918;SDS011;19280;42.646;21.150;2022-11-03T04:40:54;64.57;;;32.47;;
32918;SDS011;19280;42.646;21.150;2022-11-03T04:43:31;65.22;;;33.88;;
32918;SDS011;19280;42.646;21.150;2022-11-03T04:45:57;73.93;;;34.42;;
32918;SDS011;19280;42.646;21.150;2022-11-03T04:48:25;75.47;;;36.17;;
32918;SDS011;19280;42.646;21.150;2022-11-03T04:50:57;81.18;;;34.15;;
32918;SDS011;19280;42.646;21.150;2022-11-03T04:53:24;65.68;;;32.45;;
32918;SDS011;19280;42.646;21.150;2022-11-03T04:55:52;63.72;;;31.98;;
32918;SDS011;19280;42.646;21.150;2022-11-03T04:58:26;74.50;;;35.10;;
32918;SDS011;19280;42.646;21.150;2022-11-03T05:00:53;59.97;;;32.25;;
32918;SDS011;19280;42.646;21.150;2022-11-03T05:03:33;48.17;;;22.80;;
32918;SDS011;19280;42.646;21.150;2022-11-03T05:06:16;48.92;;;23.17;;
32918;SDS011;19280;42.646;21.150;2022-11-03T05:08:47;42.83;;;21.00;;
32918;SDS011;19280;42.646;21.150;2022-11-03T05:11:37;46.13;;;18.30;;
32918;SDS011;19280;42.646;21.150;2022-11-03T05:14:06;39.70;;;17.75;;
32918;SDS011;19280;42.646;21.150;2022-11-03T05:16:38;37.25;;;16.75;;
32918;SDS011;19280;42.646;21.150;2022-11-03T05:19:07;28.08;;;15.32;;
32918;SDS011;19280;42.646;21.150;2022-11-03T05:21:37;35.58;;;14.77;;
32918;SDS011;19280;42.646;21.150;2022-11-03T05:24:04;36.47;;;14.95;;
32918;SDS011;19280;42.646;21.150;2022-11-03T05:26:35;46.00;;;17.48;;
32918;SDS011;19280;42.646;21.150;2022-11-03T05:31:27;48.17;;;24.88;;
32918;SDS011;19280;42.646;21.150;2022-11-03T05:34:01;53.38;;;23.77;;
32918;SDS011;19280;42.646;21.150;2022-11-03T05:36:30;57.92;;;27.05;;
32918;SDS011;19280;42.646;21.150;2022-11-03T05:38:58;59.83;;;27.02;;
32918;SDS011;19280;42.646;21.150;2022-11-03T05:41:27;58.13;;;26.70;;
32918;SDS011;19280;42.646;21.150;2022-11-03T05:43:58;51.80;;;26.27;;
32918;SDS011;19280;42.646;21.150;2022-11-03T05:46:31;60.38;;;27.63;;
32918;SDS011;19280;42.646;21.150;2022-11-03T05:51:26;62.10;;;27.00;;
32918;SDS011;19280;42.646;21.150;2022-11-03T05:53:57;64.80;;;29.02;;
32918;SDS011;19280;42.646;21.150;2022-11-03T05:56:25;68.70;;;33.42;;
32918;SDS011;19280;42.646;21.150;2022-11-03T05:58:55;80.97;;;37.58;;
32918;SDS011;19280;42.646;21.150;2022-11-03T06:01:28;67.00;;;34.78;;
32918;SDS011;19280;42.646;21.150;2022-11-03T06:03:58;75.47;;;33.75;;
32918;SDS011;19280;42.646;21.150;2022-11-03T06:06:27;84.65;;;42.08;;
32918;SDS011;19280;42.646;21.150;2022-11-03T06:08:55;93.05;;;40.75;;
32918;SDS011;19280;42.646;21.150;2022-11-03T06:11:24;83.95;;;40.78;;
32918;SDS011;19280;42.646;21.150;2022-11-03T06:13:50;77.03;;;37.90;;
32918;SDS011;19280;42.646;21.150;2022-11-03T06:18:49;59.67;;;31.77;;
32918;SDS011;19280;42.646;21.150;2022-11-03T06:21:18;70.47;;;30.08;;
32918;SDS011;19280;42.646;21.150;2022-11-03T06:23:46;69.88;;;31.88;;
32918;SDS011;19280;42.646;21.150;2022-11-03T06:26:17;69.57;;;30.95;;
32918;SDS011;19280;42.646;21.150;2022-11-03T06:28:43;68.25;;;32.88;;
32918;SDS011;19280;42.646;21.150;2022-11-03T06:33:41;53.83;;;30.60;;
32918;SDS011;19280;42.646;21.150;2022-11-03T06:36:12;59.95;;;30.20;;
32918;SDS011;19280;42.646;21.150;2022-11-03T06:38:40;51.60;;;27.83;;
32918;SDS011;19280;42.646;21.150;2022-11-03T06:41:13;59.60;;;29.77;;
32918;SDS011;19280;42.646;21.150;2022-11-03T06:43:42;54.25;;;27.20;;
32918;SDS011;19280;42.646;21.150;2022-11-03T06:46:25;55.55;;;29.58;;
32918;SDS011;19280;42.646;21.150;2022-11-03T06:48:51;54.70;;;29.88;;
32918;SDS011;19280;42.646;21.150;2022-11-03T06:51:24;65.53;;;31.23;;
32918;SDS011;19280;42.646;21.150;2022-11-03T06:53:53;59.10;;;30.88;;
32918;SDS011;19280;42.646;21.150;2022-11-03T06:56:23;54.03;;;30.63;;
32918;SDS011;19280;42.646;21.150;2022-11-03T06:58:50;52.50;;;28.85;;
32918;SDS011;19280;42.646;21.150;2022-11-03T07:01:24;58.38;;;27.25;;
32918;SDS011;19280;42.646;21.150;2022-11-03T07:03:51;54.92;;;27.05;;
32918;SDS011;19280;42.646;21.150;2022-11-03T07:06:21;62.88;;;28.20;;
32918;SDS011;19280;42.646;21.150;2022-11-03T07:08:55;59.92;;;26.98;;
32918;SDS011;19280;42.646;21.150;2022-11-03T07:11:23;49.00;;;25.30;;
32918;SDS011;19280;42.646;21.150;2022-11-03T07:13:51;51.05;;;23.27;;
32918;SDS011;19280;42.646;21.150;2022-11-03T07:16:36;44.22;;;21.30;;
32918;SDS011;19280;42.646;21.150;2022-11-03T07:19:04;40.60;;;20.05;;
32918;SDS011;19280;42.646;21.150;2022-11-03T07:24:00;54.88;;;21.00;;
32918;SDS011;19280;42.646;21.150;2022-11-03T07:26:27;43.75;;;20.52;;
32918;SDS011;19280;42.646;21.150;2022-11-03T07:28:53;44.70;;;19.90;;
32918;SDS011;19280;42.646;21.150;2022-11-03T07:31:21;40.10;;;20.13;;
32918;SDS011;19280;42.646;21.150;2022-11-03T07:33:48;42.08;;;21.20;;
32918;SDS011;19280;42.646;21.150;2022-11-03T07:36:15;37.42;;;20.10;;
32918;SDS011;19280;42.646;21.150;2022-11-03T07:38:43;35.25;;;21.55;;
32918;SDS011;19280;42.646;21.150;2022-11-03T07:41:17;39.33;;;22.73;;
32918;SDS011;19280;42.646;21.150;2022-11-03T07:43:46;44.33;;;23.60;;
32918;SDS011;19280;42.646;21.150;2022-11-03T07:46:16;52.08;;;23.05;;
32918;SDS011;19280;42.646;21.150;2022-11-03T07:48:44;49.03;;;22.98;;
32918;SDS011;19280;42.646;21.150;2022-11-03T07:51:14;41.90;;;21.52;;
32918;SDS011;19280;42.646;21.150;2022-11-03T07:53:43;45.17;;;21.95;;
32918;SDS011;19280;42.646;21.150;2022-11-03T07:56:26;37.60;;;21.50;;
32918;SDS011;19280;42.646;21.150;2022-11-03T08:01:32;38.63;;;20.23;;
32918;SDS011;19280;42.646;21.150;2022-11-03T08:06:30;36.70;;;19.10;;
32918;SDS011;19280;42.646;21.150;2022-11-03T08:08:56;35.28;;;21.60;;
32918;SDS011;19280;42.646;21.150;2022-11-03T08:11:22;37.25;;;19.27;;
32918;SDS011;19280;42.646;21.150;2022-11-03T08:13:49;41.53;;;21.90;;
32918;SDS011;19280;42.646;21.150;2022-11-03T08:16:18;80.88;;;43.47;;
32918;SDS011;19280;42.646;21.150;2022-11-03T08:18:44;64.57;;;36.47;;
32918;SDS011;19280;42.646;21.150;2022-11-03T08:21:11;68.15;;;36.47;;
32918;SDS011;19280;42.646;21.150;2022-11-03T08:23:37;53.25;;;26.98;;
32918;SDS011;19280;42.646;21.150;2022-11-03T08:26:03;29.02;;;17.33;;
32918;SDS011;19280;42.646;21.150;2022-11-03T08:28:35;44.35;;;21.33;;
32918;SDS011;19280;42.646;21.150;2022-11-03T08:31:09;33.90;;;17.95;;
32918;SDS011;19280;42.646;21.150;2022-11-03T08:33:35;29.73;;;16.75;;
32918;SDS011;19280;42.646;21.150;2022-11-03T08:36:02;30.45;;;17.85;;
32918;SDS011;19280;42.646;21.150;2022-11-03T08:38:29;31.75;;;17.60;;
32918;SDS011;19280;42.646;21.150;2022-11-03T08:40:56;35.53;;;16.73;;
32918;SDS011;19280;42.646;21.150;2022-11-03T08:43:23;30.85;;;17.60;;
32918;SDS011;19280;42.646;21.150;2022-11-03T08:45:52;35.13;;;16.92;;
32918;SDS011;19280;42.646;21.150;2022-11-03T08:48:22;28.65;;;15.85;;
32918;SDS011;19280;42.646;21.150;2022-11-03T08:50:51;29.00;;;15.80;;
32918;SDS011;19280;42.646;21.150;2022-11-03T08:53:23;35.03;;;16.40;;
32918;SDS011;19280;42.646;21.150;2022-11-03T08:55:50;36.20;;;16.33;;
32918;SDS011;19280;42.646;21.150;2022-11-03T08:58:16;32.75;;;15.98;;
32918;SDS011;19280;42.646;21.150;2022-11-03T09:00:42;36.60;;;15.75;;
32918;SDS011;19280;42.646;21.150;2022-11-03T09:03:12;29.48;;;16.20;;
32918;SDS011;19280;42.646;21.150;2022-11-03T09:05:40;32.38;;;15.02;;
32918;SDS011;19280;42.646;21.150;2022-11-03T09:08:06;33.60;;;14.00;;
32918;SDS011;19280;42.646;21.150;2022-11-03T09:10:32;27.00;;;13.57;;
32918;SDS011;19280;42.646;21.150;2022-11-03T09:13:01;23.58;;;12.82;;
32918;SDS011;19280;42.646;21.150;2022-11-03T09:15:28;24.13;;;12.68;;
32918;SDS011;19280;42.646;21.150;2022-11-03T09:17:54;23.27;;;12.15;;
32918;SDS011;19280;42.646;21.150;2022-11-03T09:20:21;29.08;;;14.18;;
32918;SDS011;19280;42.646;21.150;2022-11-03T09:22:47;28.63;;;14.82;;
32918;SDS011;19280;42.646;21.150;2022-11-03T09:25:13;25.70;;;14.63;;
32918;SDS011;19280;42.646;21.150;2022-11-03T09:27:39;28.05;;;14.82;;
32918;SDS011;19280;42.646;21.150;2022-11-03T09:30:05;28.38;;;15.57;;
32918;SDS011;19280;42.646;21.150;2022-11-03T09:32:32;30.45;;;12.70;;
32918;SDS011;19280;42.646;21.150;2022-11-03T09:34:58;28.90;;;14.73;;
32918;SDS011;19280;42.646;21.150;2022-11-03T09:37:24;38.60;;;14.65;;
32918;SDS011;19280;42.646;21.150;2022-11-03T09:39:52;35.05;;;14.52;;
32918;SDS011;19280;42.646;21.150;2022-11-03T09:42:18;31.60;;;13.13;;
32918;SDS011;19280;42.646;21.150;2022-11-03T09:44:45;19.48;;;11.32;;
32918;SDS011;19280;42.646;21.150;2022-11-03T09:47:21;22.80;;;11.23;;
32918;SDS011;19280;42.646;21.150;2022-11-03T09:49:48;18.65;;;11.13;;
32918;SDS011;19280;42.646;21.150;2022-11-03T09:52:16;23.70;;;11.57;;
32918;SDS011;19280;42.646;21.150;2022-11-03T09:54:44;22.20;;;10.90;;
32918;SDS011;19280;42.646;21.150;2022-11-03T09:57:11;25.45;;;10.30;;
32918;SDS011;19280;42.646;21.150;2022-11-03T09:59:38;18.95;;;10.60;;
32918;SDS011;19280;42.646;21.150;2022-11-03T10:02:10;22.27;;;11.00;;
32918;SDS011;19280;42.646;21.150;2022-11-03T10:04:38;21.60;;;10.85;;
32918;SDS011;19280;42.646;21.150;2022-11-03T10:07:06;32.20;;;10.32;;
32918;SDS011;19280;42.646;21.150;2022-11-03T10:09:33;21.90;;;10.15;;
32918;SDS011;19280;42.646;21.150;2022-11-03T10:12:00;21.52;;;10.48;;
32918;SDS011;19280;42.646;21.150;2022-11-03T10:14:26;27.45;;;10.25;;
32918;SDS011;19280;42.646;21.150;2022-11-03T10:16:56;22.08;;;10.05;;
32918;SDS011;19280;42.646;21.150;2022-11-03T10:19:26;20.27;;;10.05;;
32918;SDS011;19280;42.646;21.150;2022-11-03T10:21:52;20.23;;;9.93;;
32918;SDS011;19280;42.646;21.150;2022-11-03T10:24:18;25.90;;;10.05;;
32918;SDS011;19280;42.646;21.150;2022-11-03T10:26:52;21.60;;;9.48;;
32918;SDS011;19280;42.646;21.150;2022-11-03T10:29:22;21.33;;;9.82;;
32918;SDS011;19280;42.646;21.150;2022-11-03T10:31:49;25.83;;;9.55;;
32918;SDS011;19280;42.646;21.150;2022-11-03T10:37:11;19.45;;;9.90;;
32918;SDS011;19280;42.646;21.150;2022-11-03T10:39:38;18.00;;;9.05;;
32918;SDS011;19280;42.646;21.150;2022-11-03T10:42:04;20.48;;;9.27;;
32918;SDS011;19280;42.646;21.150;2022-11-03T10:44:30;22.08;;;8.75;;
32918;SDS011;19280;42.646;21.150;2022-11-03T10:47:00;21.70;;;9.38;;
32918;SDS011;19280;42.646;21.150;2022-11-03T10:49:29;23.17;;;9.43;;
32918;SDS011;19280;42.646;21.150;2022-11-03T10:52:08;23.23;;;8.70;;
32918;SDS011;19280;42.646;21.150;2022-11-03T10:54:39;21.88;;;8.35;;
32918;SDS011;19280;42.646;21.150;2022-11-03T10:57:05;22.15;;;8.95;;
32918;SDS011;19280;42.646;21.150;2022-11-03T10:59:32;21.77;;;8.88;;
32918;SDS011;19280;42.646;21.150;2022-11-03T11:02:01;18.77;;;8.48;;
32918;SDS011;19280;42.646;21.150;2022-11-03T11:04:28;22.25;;;9.40;;
32918;SDS011;19280;42.646;21.150;2022-11-03T11:06:54;21.17;;;9.65;;
32918;SDS011;19280;42.646;21.150;2022-11-03T11:09:24;22.60;;;7.68;;
32918;SDS011;19280;42.646;21.150;2022-11-03T11:16:55;27.50;;;8.45;;
32918;SDS011;19280;42.646;21.150;2022-11-03T11:19:25;24.27;;;8.00;;
32918;SDS011;19280;42.646;21.150;2022-11-03T11:27:44;23.88;;;8.18;;
32918;SDS011;19280;42.646;21.150;2022-11-03T11:29:51;25.50;;;7.82;;
32918;SDS011;19280;42.646;21.150;2022-11-03T11:35:17;18.35;;;5.88;;
32918;SDS011;19280;42.646;21.150;2022-11-03T11:37:43;18.55;;;6.90;;
32918;SDS011;19280;42.646;21.150;2022-11-03T11:40:13;25.45;;;6.30;;
32918;SDS011;19280;42.646;21.150;2022-11-03T11:43:40;18.60;;;6.18;;
32918;SDS011;19280;42.646;21.150;2022-11-03T11:48:21;24.48;;;6.88;;
32918;SDS011;19280;42.646;21.150;2022-11-03T11:50:47;16.67;;;6.35;;
32918;SDS011;19280;42.646;21.150;2022-11-03T11:53:17;18.75;;;6.45;;
32918;SDS011;19280;42.646;21.150;2022-11-03T11:58:32;26.25;;;7.35;;
32918;SDS011;19280;42.646;21.150;2022-11-03T12:01:00;19.73;;;7.45;;
32918;SDS011;19280;42.646;21.150;2022-11-03T12:03:29;17.42;;;7.10;;
32918;SDS011;19280;42.646;21.150;2022-11-03T12:05:55;22.35;;;6.35;;
32918;SDS011;19280;42.646;21.150;2022-11-03T12:08:25;17.27;;;6.78;;
32918;SDS011;19280;42.646;21.150;2022-11-03T12:10:56;17.65;;;6.55;;
32918;SDS011;19280;42.646;21.150;2022-11-03T12:13:44;14.30;;;6.13;;
32918;SDS011;19280;42.646;21.150;2022-11-03T12:16:09;17.25;;;7.05;;
32918;SDS011;19280;42.646;21.150;2022-11-03T12:18:40;18.45;;;7.20;;
32918;SDS011;19280;42.646;21.150;2022-11-03T12:23:34;20.88;;;7.47;;
32918;SDS011;19280;42.646;21.150;2022-11-03T12:26:01;19.30;;;7.05;;
32918;SDS011;19280;42.646;21.150;2022-11-03T12:28:34;19.70;;;6.97;;
32918;SDS011;19280;42.646;21.150;2022-11-03T12:31:01;30.33;;;7.53;;
32918;SDS011;19280;42.646;21.150;2022-11-03T12:33:28;24.38;;;7.40;;
32918;SDS011;19280;42.646;21.150;2022-11-03T12:35:54;25.15;;;7.53;;
32918;SDS011;19280;42.646;21.150;2022-11-03T12:38:21;22.48;;;7.07;;
32918;SDS011;19280;42.646;21.150;2022-11-03T12:40:47;19.17;;;7.05;;
32918;SDS011;19280;42.646;21.150;2022-11-03T12:43:14;14.48;;;6.28;;
32918;SDS011;19280;42.646;21.150;2022-11-03T12:45:40;19.42;;;6.60;;
32918;SDS011;19280;42.646;21.150;2022-11-03T12:48:06;19.75;;;7.38;;
32918;SDS011;19280;42.646;21.150;2022-11-03T12:50:33;19.75;;;7.85;;
32918;SDS011;19280;42.646;21.150;2022-11-03T12:53:01;22.30;;;7.47;;
32918;SDS011;19280;42.646;21.150;2022-11-03T12:55:28;26.90;;;8.30;;
32918;SDS011;19280;42.646;21.150;2022-11-03T12:57:54;23.30;;;8.32;;
32918;SDS011;19280;42.646;21.150;2022-11-03T13:00:20;30.35;;;8.07;;
32918;SDS011;19280;42.646;21.150;2022-11-03T13:02:46;26.95;;;8.25;;
32918;SDS011;19280;42.646;21.150;2022-11-03T13:05:12;18.10;;;8.30;;
32918;SDS011;19280;42.646;21.150;2022-11-03T13:07:40;24.60;;;7.95;;
32918;SDS011;19280;42.646;21.150;2022-11-03T13:10:06;24.85;;;7.72;;
32918;SDS011;19280;42.646;21.150;2022-11-03T13:12:32;19.77;;;7.35;;
32918;SDS011;19280;42.646;21.150;2022-11-03T13:15:01;25.02;;;8.55;;
32918;SDS011;19280;42.646;21.150;2022-11-03T13:17:28;24.13;;;9.27;;
32918;SDS011;19280;42.646;21.150;2022-11-03T13:19:54;21.98;;;8.30;;
32918;SDS011;19280;42.646;21.150;2022-11-03T13:22:20;25.90;;;8.40;;
32918;SDS011;19280;42.646;21.150;2022-11-03T13:24:48;28.00;;;11.18;;
32918;SDS011;19280;42.646;21.150;2022-11-03T13:27:15;27.90;;;10.85;;
32918;SDS011;19280;42.646;21.150;2022-11-03T13:29:41;28.85;;;10.70;;
32918;SDS011;19280;42.646;21.150;2022-11-03T13:32:07;33.15;;;11.70;;
32918;SDS011;19280;42.646;21.150;2022-11-03T13:34:33;30.30;;;10.05;;
32918;SDS011;19280;42.646;21.150;2022-11-03T13:36:59;29.23;;;9.30;;
32918;SDS011;19280;42.646;21.150;2022-11-03T13:39:25;26.90;;;10.98;;
32918;SDS011;19280;42.646;21.150;2022-11-03T13:41:51;21.42;;;9.02;;
32918;SDS011;19280;42.646;21.150;2022-11-03T13:44:17;23.23;;;8.00;;
32918;SDS011;19280;42.646;21.150;2022-11-03T13:46:43;25.80;;;9.40;;
32918;SDS011;19280;42.646;21.150;2022-11-03T13:49:09;26.33;;;8.85;;
32918;SDS011;19280;42.646;21.150;2022-11-03T13:51:35;25.08;;;8.95;;
32918;SDS011;19280;42.646;21.150;2022-11-03T13:54:02;26.27;;;9.38;;
32918;SDS011;19280;42.646;21.150;2022-11-03T13:56:28;27.73;;;8.00;;
32918;SDS011;19280;42.646;21.150;2022-11-03T13:58:54;30.73;;;9.30;;
32918;SDS011;19280;42.646;21.150;2022-11-03T14:01:20;26.02;;;9.40;;
32918;SDS011;19280;42.646;21.150;2022-11-03T14:03:46;29.35;;;9.43;;
32918;SDS011;19280;42.646;21.150;2022-11-03T14:06:12;27.88;;;8.73;;
32918;SDS011;19280;42.646;21.150;2022-11-03T14:08:39;25.17;;;9.57;;
32918;SDS011;19280;42.646;21.150;2022-11-03T14:11:06;26.20;;;8.80;;
32918;SDS011;19280;42.646;21.150;2022-11-03T14:13:50;25.30;;;8.73;;
32918;SDS011;19280;42.646;21.150;2022-11-03T14:16:16;26.77;;;8.90;;
32918;SDS011;19280;42.646;21.150;2022-11-03T14:18:42;27.95;;;9.75;;
32918;SDS011;19280;42.646;21.150;2022-11-03T14:21:08;23.10;;;10.48;;
32918;SDS011;19280;42.646;21.150;2022-11-03T14:23:34;27.25;;;11.38;;
32918;SDS011;19280;42.646;21.150;2022-11-03T14:26:01;33.22;;;11.45;;
32918;SDS011;19280;42.646;21.150;2022-11-03T14:28:27;36.25;;;9.95;;
32918;SDS011;19280;42.646;21.150;2022-11-03T14:30:56;37.30;;;10.60;;
32918;SDS011;19280;42.646;21.150;2022-11-03T14:33:24;30.77;;;10.50;;
32918;SDS011;19280;42.646;21.150;2022-11-03T14:35:51;36.28;;;11.52;;
32918;SDS011;19280;42.646;21.150;2022-11-03T14:38:17;34.55;;;12.43;;
32918;SDS011;19280;42.646;21.150;2022-11-03T14:40:43;30.25;;;10.90;;
32918;SDS011;19280;42.646;21.150;2022-11-03T14:43:28;39.05;;;10.80;;
32918;SDS011;19280;42.646;21.150;2022-11-03T14:45:54;43.70;;;10.52;;
32918;SDS011;19280;42.646;21.150;2022-11-03T14:48:20;35.28;;;11.55;;
32918;SDS011;19280;42.646;21.150;2022-11-03T14:50:46;45.15;;;15.82;;
32918;SDS011;19280;42.646;21.150;2022-11-03T14:53:12;50.20;;;14.90;;
32918;SDS011;19280;42.646;21.150;2022-11-03T14:55:39;42.55;;;12.70;;
32918;SDS011;19280;42.646;21.150;2022-11-03T14:58:05;39.08;;;14.73;;
32918;SDS011;19280;42.646;21.150;2022-11-03T15:00:31;39.45;;;12.10;;
32918;SDS011;19280;42.646;21.150;2022-11-03T15:02:57;33.55;;;11.27;;
32918;SDS011;19280;42.646;21.150;2022-11-03T15:05:24;44.20;;;14.98;;
32918;SDS011;19280;42.646;21.150;2022-11-03T15:08:10;55.35;;;17.25;;
32918;SDS011;19280;42.646;21.150;2022-11-03T15:10:36;101.55;;;36.78;;
32918;SDS011;19280;42.646;21.150;2022-11-03T15:13:10;147.30;;;53.20;;
32918;SDS011;19280;42.646;21.150;2022-11-03T15:15:39;96.07;;;33.58;;
32918;SDS011;19280;42.646;21.150;2022-11-03T15:18:08;80.95;;;26.35;;
32918;SDS011;19280;42.646;21.150;2022-11-03T15:20:34;67.97;;;26.10;;
32918;SDS011;19280;42.646;21.150;2022-11-03T15:23:01;68.68;;;25.98;;
32918;SDS011;19280;42.646;21.150;2022-11-03T15:25:29;60.00;;;23.92;;